PLYK1: Cottonwood River, Plymouth, KS

                                SHEF ID:       PLYK1     COTTONWOOD R NR PLYMOUTH, KS
STATION TYPE:
Regulating: Stage = 28.00, Flow = 11886

PRECIP STAGE STAGE(2) RIV-FLOW BAT-LOAD
in ft ft cfs volt
Ccp-Rev Ccp-Rev Ccp-Rev Ccp-Rev Ccp-Rev
(America/Chicago)
11/23 00:00 0.00 15.36 ---- 4179 12.63
11/23 01:00 0.00 14.86 ---- 3947 12.61
11/23 02:00 0.00 14.42 ---- 3748 12.59
11/23 03:00 0.00 13.91 ---- 3523 12.57
11/23 04:00 0.00 13.49 ---- 3342 12.57
11/23 05:00 0.00 13.09 ---- 3173 12.55
11/23 06:00 0.00 12.72 ---- 3021 12.54
11/23 07:00 0.00 12.38 ---- 2884 12.53
11/23 08:00 0.00 12.06 ---- 2758 12.52
11/23 09:00 0.00 11.78 ---- 2649 13.11
11/23 10:00 0.00 11.53 ---- 2554 13.58
11/23 11:00 0.00 11.27 ---- 2456 13.24
11/23 12:00 0.00 11.05 ---- 2375 13.19
11/23 13:00 0.00 10.83 ---- 2295 13.17
11/23 14:00 0.00 10.65 ---- 2231 13.14
11/23 15:00 0.00 10.48 ---- 2171 13.09
11/23 16:00 0.00 10.32 ---- 2115 13.01
11/23 17:00 0.00 10.18 ---- 2066 12.87
11/23 18:00 0.00 10.04 ---- 2018 12.76
11/23 19:00 0.00 9.91 ---- 1974 12.73
11/23 20:00 0.00 9.78 ---- 1930 12.70
11/23 21:00 0.00 9.66 ---- 1890 12.67
11/23 22:00 0.00 9.55 ---- 1854 12.65
11/23 23:00 0.00 9.44 ---- 1818 12.63
Data processed at Mon 24Nov2025 05:06 GMT

NOTICE: If you are parsing this page

Please convert to using our Data API. Starting January 1st, 2026 we will be migrating to: https://water.usace.army.mil with modern pages rendered in JavaScript. You will no longer be able to scrape this page! CWMSDataAPI (CDA)

Timeseries IDs (TSIDs)

TSIDs used from left to right in the data table
PLYM.Precip-Inc.Total.1Hour.1Hour.Ccp-Rev
PLYM.Stage.Inst.1Hour.0.Ccp-Rev
PLYM.Stage-Alt.Inst.1Hour.0.Ccp-Rev
PLYM.Flow.Inst.1Hour.0.Ccp-Rev
PLYM.Volt-Battery Load.Inst.1Hour.0.Ccp-Rev

                            

All information presented herein is the property of the government of the United States of America and may be revised or deleted at any time without prior notice. Dissemination of this information without the expressed written consent of the Public Affairs Office, Tulsa District U.S. Army Corps of Engineers is strictly prohibited. These data are gathered electronically and, as presented, have NOT undergone any form of quality control. These data are NOT guaranteed to be valid or correct.